createdAt,value
2018-12-17T00:00:41.042Z,1.90
2018-12-17T00:03:09.441Z,1.90
2018-12-17T00:05:41.728Z,1.90
2018-12-17T00:08:08.526Z,1.90
2018-12-17T00:10:36.829Z,1.90
2018-12-17T00:13:05.405Z,1.90
2018-12-17T00:15:33.676Z,1.90
2018-12-17T00:18:01.981Z,1.80
2018-12-17T00:20:30.613Z,1.80
2018-12-17T00:22:58.938Z,1.70
2018-12-17T00:25:27.606Z,1.70
2018-12-17T00:27:55.895Z,1.70
2018-12-17T00:30:24.484Z,1.70
2018-12-17T00:32:52.814Z,1.70
2018-12-17T00:35:21.600Z,1.70
2018-12-17T00:37:49.873Z,1.70
2018-12-17T00:40:18.565Z,1.70
2018-12-17T00:42:46.885Z,1.70
2018-12-17T00:45:15.645Z,1.70
2018-12-17T00:47:43.920Z,1.60
2018-12-17T00:50:12.696Z,1.60
2018-12-17T00:52:40.981Z,1.60
2018-12-17T00:55:09.569Z,1.60
2018-12-17T00:57:37.960Z,1.60
2018-12-17T01:00:08.543Z,1.50
2018-12-17T01:02:36.840Z,1.50
2018-12-17T01:05:05.945Z,1.50
2018-12-17T01:07:34.626Z,1.50
2018-12-17T01:10:03.020Z,1.50
2018-12-17T01:12:31.456Z,1.50
2018-12-17T01:14:59.799Z,1.50
2018-12-17T01:17:28.644Z,1.50
2018-12-17T01:19:56.945Z,1.50
2018-12-17T01:22:25.501Z,1.50
2018-12-17T01:24:53.796Z,1.40
2018-12-17T01:27:22.073Z,1.40
2018-12-17T01:29:51.561Z,1.30
2018-12-17T01:32:19.820Z,1.30
2018-12-17T01:34:48.112Z,1.30
2018-12-17T01:37:16.681Z,1.30
2018-12-17T01:39:45.675Z,1.30
2018-12-17T01:42:14.335Z,1.30
2018-12-17T01:44:42.638Z,1.30
2018-12-17T01:47:10.914Z,1.20
2018-12-17T01:49:39.493Z,1.20
2018-12-17T01:52:07.880Z,1.20
2018-12-17T01:54:36.361Z,1.10
2018-12-17T01:57:04.627Z,1.10
2018-12-17T01:59:32.928Z,1.10
2018-12-17T02:02:01.328Z,1.10
2018-12-17T02:04:29.949Z,1.00
2018-12-17T02:06:58.552Z,1.00
2018-12-17T02:09:26.926Z,0.90
2018-12-17T02:11:55.515Z,0.90
2018-12-17T02:14:23.882Z,1.00
2018-12-17T02:16:52.225Z,1.00
2018-12-17T02:19:20.732Z,1.00
2018-12-17T02:21:49.164Z,1.00
2018-12-17T02:24:17.735Z,1.00
2018-12-17T02:26:46.069Z,1.00
2018-12-17T02:29:14.765Z,0.90
2018-12-17T02:31:43.057Z,0.90
2018-12-17T02:34:12.513Z,0.90
2018-12-17T02:36:40.805Z,0.90
2018-12-17T02:39:09.063Z,0.90
2018-12-17T02:41:37.653Z,0.90
2018-12-17T02:44:06.409Z,0.90
2018-12-17T02:46:34.708Z,0.80
2018-12-17T02:49:02.977Z,0.80
2018-12-17T02:51:31.761Z,0.80
2018-12-17T02:54:00.072Z,0.80
2018-12-17T02:56:28.777Z,0.90
2018-12-17T02:58:57.200Z,0.90
2018-12-17T03:01:25.782Z,0.90
2018-12-17T03:03:54.076Z,0.80
2018-12-17T03:06:22.650Z,0.80
2018-12-17T03:08:51.120Z,0.80
2018-12-17T03:11:19.725Z,0.80
2018-12-17T03:13:48.106Z,0.80
2018-12-17T03:16:16.866Z,0.80
2018-12-17T03:18:45.164Z,0.70
2018-12-17T03:21:13.856Z,0.70
2018-12-17T03:23:42.122Z,0.70
2018-12-17T03:26:11.487Z,0.70
2018-12-17T03:28:39.810Z,0.70
2018-12-17T03:31:08.637Z,0.60
2018-12-17T03:33:37.169Z,0.60
2018-12-17T03:36:05.766Z,0.60
2018-12-17T03:38:34.128Z,0.60
2018-12-17T03:41:02.700Z,0.60
2018-12-17T03:43:30.971Z,0.70
2018-12-17T03:46:00.150Z,0.70
2018-12-17T03:48:28.856Z,0.60
2018-12-17T03:50:57.202Z,0.60
2018-12-17T03:53:25.945Z,0.60
2018-12-17T03:55:54.217Z,0.60
2018-12-17T03:58:22.890Z,0.60
2018-12-17T04:00:51.340Z,0.60
2018-12-17T04:03:20.073Z,0.50
2018-12-17T04:05:48.409Z,0.50
2018-12-17T04:08:17.009Z,0.50
2018-12-17T04:10:45.285Z,0.50
2018-12-17T04:13:14.152Z,0.50
2018-12-17T04:15:42.644Z,0.50
2018-12-17T04:18:10.960Z,0.50
2018-12-17T04:20:39.286Z,0.50
2018-12-17T04:23:07.782Z,0.50
2018-12-17T04:25:36.047Z,0.40
2018-12-17T04:28:06.099Z,0.30
2018-12-17T04:30:34.393Z,0.30
2018-12-17T04:33:02.933Z,0.30
2018-12-17T04:35:31.200Z,0.40
2018-12-17T04:37:59.793Z,0.30
2018-12-17T04:40:28.179Z,0.20
2018-12-17T04:42:56.542Z,0.20
2018-12-17T04:45:25.002Z,0.20
2018-12-17T04:47:53.904Z,0.20
2018-12-17T04:50:22.196Z,0.10
2018-12-17T04:52:50.564Z,0.00
2018-12-17T04:55:19.162Z,0.00
2018-12-17T04:57:48.028Z,0.00
2018-12-17T05:00:16.353Z,0.00
2018-12-17T05:02:44.899Z,0.00
2018-12-17T05:05:13.179Z,0.10
2018-12-17T05:07:41.489Z,-0.10
2018-12-17T05:10:09.868Z,-0.10
2018-12-17T05:12:38.194Z,-0.10
2018-12-17T05:15:07.033Z,-0.10
2018-12-17T05:17:35.405Z,-0.20
2018-12-17T05:20:03.821Z,-0.20
2018-12-17T05:22:32.225Z,-0.10
2018-12-17T05:25:00.801Z,-0.10
2018-12-17T05:27:29.223Z,-0.10
2018-12-17T05:29:57.863Z,-0.10
2018-12-17T05:32:26.233Z,0.00
2018-12-17T05:34:54.516Z,0.00
2018-12-17T05:37:23.131Z,0.00
2018-12-17T05:39:51.405Z,0.10
2018-12-17T05:42:20.010Z,0.10
2018-12-17T05:44:48.333Z,0.10
2018-12-17T05:47:16.884Z,0.10
2018-12-17T05:49:45.197Z,0.20
2018-12-17T05:52:13.465Z,0.20
2018-12-17T05:54:41.906Z,0.30
2018-12-17T05:57:10.213Z,0.30
2018-12-17T05:59:38.774Z,0.30
2018-12-17T06:02:07.093Z,0.30
2018-12-17T06:04:35.457Z,0.30
2018-12-17T06:07:03.883Z,0.30
2018-12-17T06:09:32.181Z,0.20
2018-12-17T06:12:00.606Z,0.20
2018-12-17T06:14:29.118Z,0.20
2018-12-17T06:16:57.433Z,0.20
2018-12-17T06:19:26.156Z,0.10
2018-12-17T06:21:54.452Z,0.20
2018-12-17T06:24:23.258Z,0.20
2018-12-17T06:26:51.636Z,0.30
2018-12-17T06:29:20.061Z,0.20
2018-12-17T06:31:48.527Z,0.30
2018-12-17T06:34:17.221Z,0.30
2018-12-17T06:36:45.518Z,0.20
2018-12-17T06:39:14.885Z,0.20
2018-12-17T06:41:43.401Z,0.60
2018-12-17T06:44:12.991Z,1.00
2018-12-17T06:46:41.350Z,1.20
2018-12-17T06:49:09.719Z,1.10
2018-12-17T06:51:38.078Z,1.00
2018-12-17T06:54:06.393Z,1.00
2018-12-17T06:56:34.960Z,1.00
2018-12-17T06:59:03.302Z,0.90
2018-12-17T07:01:32.190Z,0.80
2018-12-17T07:04:00.507Z,0.70
2018-12-17T07:06:29.079Z,0.70
2018-12-17T07:08:57.457Z,0.70
2018-12-17T07:11:26.057Z,0.60
2018-12-17T07:13:54.518Z,0.60
2018-12-17T07:16:23.108Z,0.50
2018-12-17T07:18:51.471Z,0.40
2018-12-17T07:21:20.091Z,0.40
2018-12-17T07:23:48.436Z,0.40
2018-12-17T07:26:17.327Z,0.30
2018-12-17T07:28:45.777Z,0.30
2018-12-17T07:31:14.460Z,0.30
2018-12-17T07:33:43.008Z,0.40
2018-12-17T07:36:11.308Z,0.40
2018-12-17T07:38:39.631Z,0.50
2018-12-17T07:41:08.106Z,0.50
2018-12-17T07:43:36.937Z,0.50
2018-12-17T07:46:05.244Z,0.50
2018-12-17T07:48:33.615Z,0.50
2018-12-17T07:51:02.061Z,0.50
2018-12-17T07:53:30.411Z,0.50
2018-12-17T07:55:58.754Z,0.50
2018-12-17T07:58:27.329Z,0.50
2018-12-17T08:00:55.634Z,0.50
2018-12-17T08:03:24.308Z,0.50
2018-12-17T08:05:52.605Z,0.50
2018-12-17T08:08:21.280Z,0.60
2018-12-17T08:10:49.658Z,0.60
2018-12-17T08:13:18.473Z,0.70
2018-12-17T08:15:47.100Z,0.90
2018-12-17T08:18:22.122Z,0.90
2018-12-17T08:20:50.833Z,1.00
2018-12-17T08:23:19.262Z,1.00
2018-12-17T08:25:47.598Z,1.00
2018-12-17T08:28:16.248Z,1.00
2018-12-17T08:30:44.668Z,1.10
2018-12-17T08:33:13.516Z,1.10
2018-12-17T08:35:41.805Z,1.00
2018-12-17T08:38:10.230Z,1.10
2018-12-17T08:40:38.525Z,1.10
2018-12-17T08:43:06.879Z,1.10
2018-12-17T08:45:35.325Z,1.10
2018-12-17T08:48:03.615Z,1.10
2018-12-17T08:50:32.296Z,1.10
2018-12-17T08:53:00.662Z,1.20
2018-12-17T08:55:29.247Z,1.30
2018-12-17T08:57:57.648Z,1.40
2018-12-17T09:00:26.384Z,1.60
2018-12-17T09:02:54.758Z,1.60
2018-12-17T09:05:23.348Z,1.70
2018-12-17T09:07:51.634Z,1.80
2018-12-17T09:10:20.403Z,1.60
2018-12-17T09:12:48.706Z,1.70
2018-12-17T09:15:17.361Z,1.70
2018-12-17T09:17:45.645Z,1.70
2018-12-17T09:20:14.298Z,1.80
2018-12-17T09:22:42.625Z,1.90
2018-12-17T09:25:10.914Z,1.80
2018-12-17T09:27:39.224Z,1.80
2018-12-17T09:30:07.764Z,2.00
2018-12-17T09:32:36.282Z,2.10
2018-12-17T09:35:04.696Z,2.20
2018-12-17T09:37:33.301Z,2.20
2018-12-17T09:40:01.624Z,2.20
2018-12-17T09:42:29.945Z,2.30
2018-12-17T09:44:58.333Z,2.30
2018-12-17T09:47:26.835Z,2.30
2018-12-17T09:49:55.379Z,2.40
2018-12-17T09:52:23.689Z,2.40
2018-12-17T09:54:52.219Z,2.30
2018-12-17T09:57:20.536Z,2.40
2018-12-17T09:59:48.815Z,2.30
2018-12-17T10:02:17.462Z,2.50
2018-12-17T10:04:45.823Z,2.70
2018-12-17T10:07:14.473Z,2.90
2018-12-17T10:09:42.827Z,3.10
2018-12-17T10:12:11.379Z,3.30
2018-12-17T10:14:39.700Z,3.50
2018-12-17T10:17:08.051Z,3.70
2018-12-17T10:19:36.413Z,3.80
2018-12-17T10:22:04.898Z,3.80
2018-12-17T10:24:33.463Z,4.00
2018-12-17T10:27:01.775Z,4.20
2018-12-17T10:29:30.362Z,4.30
2018-12-17T10:31:58.642Z,4.30
2018-12-17T10:34:26.991Z,4.30
2018-12-17T10:36:55.404Z,4.50
2018-12-17T10:39:23.768Z,4.50
2018-12-17T10:41:52.407Z,4.50
2018-12-17T10:44:20.676Z,4.40
2018-12-17T10:46:49.057Z,4.20
2018-12-17T10:49:17.515Z,4.10
2018-12-17T10:51:47.194Z,4.10
2018-12-17T10:54:15.653Z,4.40
2018-12-17T10:56:43.944Z,4.10
2018-12-17T10:59:13.332Z,4.20
2018-12-17T11:01:47.237Z,4.30
2018-12-17T11:04:17.334Z,4.40
2018-12-17T11:06:45.910Z,4.40
2018-12-17T11:09:14.509Z,4.40
2018-12-17T11:11:42.828Z,4.40
2018-12-17T11:14:13.605Z,4.40
2018-12-17T11:16:42.018Z,4.40
2018-12-17T11:19:10.448Z,4.30
2018-12-17T11:21:38.745Z,4.20
2018-12-17T11:24:07.112Z,4.20
2018-12-17T11:26:35.588Z,4.20
2018-12-17T11:29:03.880Z,4.20
2018-12-17T11:31:32.424Z,4.30
2018-12-17T11:34:00.905Z,4.30
2018-12-17T11:36:29.641Z,4.40
2018-12-17T11:38:58.061Z,4.30
2018-12-17T11:41:26.649Z,4.30
2018-12-17T11:43:55.001Z,4.10
2018-12-17T11:46:23.677Z,4.10
2018-12-17T11:48:51.984Z,4.00
2018-12-17T11:51:20.622Z,4.00
2018-12-17T11:53:48.984Z,4.00
2018-12-17T11:56:17.649Z,4.00
2018-12-17T11:58:45.948Z,4.00
2018-12-17T12:01:15.312Z,4.00
2018-12-17T12:03:43.727Z,4.00
2018-12-17T12:06:14.320Z,4.10
2018-12-17T12:08:43.229Z,4.10
2018-12-17T12:11:11.613Z,4.20
2018-12-17T12:13:40.121Z,4.30
2018-12-17T12:16:08.533Z,4.30
2018-12-17T12:18:36.841Z,4.30
2018-12-17T12:21:05.213Z,4.30
2018-12-17T12:23:33.610Z,4.40
2018-12-17T12:26:01.886Z,4.40
2018-12-17T12:28:30.738Z,4.50
2018-12-17T12:31:00.626Z,6.90
2018-12-17T12:33:29.676Z,4.50
2018-12-17T12:35:57.966Z,4.60
2018-12-17T12:38:26.822Z,4.70
2018-12-17T12:40:55.124Z,4.60
2018-12-17T12:43:23.820Z,4.60
2018-12-17T12:45:52.188Z,4.60
2018-12-17T12:48:20.701Z,4.60
2018-12-17T12:50:48.963Z,4.60
2018-12-17T12:53:18.086Z,4.60
2018-12-17T12:55:48.252Z,4.60
2018-12-17T12:58:16.867Z,4.70
2018-12-17T13:00:45.225Z,4.70
2018-12-17T13:03:13.862Z,4.70
2018-12-17T13:05:42.193Z,4.80
2018-12-17T13:08:10.527Z,4.90
2018-12-17T13:10:38.824Z,5.20
2018-12-17T13:13:07.270Z,5.70
2018-12-17T13:15:35.652Z,6.20
2018-12-17T13:18:04.057Z,6.80
2018-12-17T13:20:32.705Z,7.40
2018-12-17T13:23:00.988Z,7.80
2018-12-17T13:25:31.158Z,8.00
2018-12-17T13:27:59.622Z,7.80
2018-12-17T13:30:27.988Z,7.30
2018-12-17T13:32:56.368Z,7.00
2018-12-17T13:35:24.773Z,6.80
2018-12-17T13:37:53.059Z,6.60
2018-12-17T13:40:21.905Z,6.40
2018-12-17T13:42:50.177Z,6.40
2018-12-17T13:45:18.760Z,6.20
2018-12-17T13:47:47.018Z,6.30
2018-12-17T13:50:21.017Z,6.30
2018-12-17T13:52:49.564Z,6.20
2018-12-17T13:55:17.916Z,6.00
2018-12-17T13:57:46.269Z,5.80
2018-12-17T14:00:14.978Z,5.70
2018-12-17T14:02:43.353Z,5.60
2018-12-17T14:05:11.822Z,5.50
2018-12-17T14:07:40.112Z,5.50
2018-12-17T14:10:14.493Z,5.50
2018-12-17T14:12:42.767Z,5.40
2018-12-17T14:15:11.145Z,5.40
2018-12-17T14:17:41.357Z,5.30
2018-12-17T14:20:15.280Z,5.20
2018-12-17T14:22:43.956Z,5.20
2018-12-17T14:25:13.167Z,5.20
2018-12-17T14:27:41.576Z,5.20
2018-12-17T14:30:09.875Z,5.20
2018-12-17T14:32:38.209Z,5.20
2018-12-17T14:35:06.843Z,5.20
2018-12-17T14:37:36.965Z,5.20
2018-12-17T14:40:07.341Z,5.10
2018-12-17T14:42:35.705Z,5.10
2018-12-17T14:45:04.578Z,5.10
2018-12-17T14:47:32.965Z,5.10
2018-12-17T14:50:01.237Z,5.10
2018-12-17T14:52:29.929Z,5.10
2018-12-17T14:54:58.288Z,5.10
2018-12-17T14:57:26.861Z,5.00
2018-12-17T14:59:55.163Z,5.00
2018-12-17T15:02:23.978Z,5.00
2018-12-17T15:04:52.332Z,5.00
2018-12-17T15:07:21.020Z,4.90
2018-12-17T15:09:49.398Z,4.90
2018-12-17T15:12:17.927Z,4.80
2018-12-17T15:14:46.204Z,4.80
2018-12-17T15:17:14.981Z,4.80
2018-12-17T15:19:43.282Z,4.70
2018-12-17T15:22:11.804Z,4.70
2018-12-17T15:24:40.477Z,4.70
2018-12-17T15:27:09.360Z,4.70
2018-12-17T15:29:37.865Z,4.60
2018-12-17T15:32:06.160Z,4.60
2018-12-17T15:34:34.748Z,4.60
2018-12-17T15:37:03.020Z,4.60
2018-12-17T15:39:31.543Z,4.50
2018-12-17T15:42:00.057Z,4.50
2018-12-17T15:44:28.996Z,4.60
2018-12-17T15:46:57.767Z,4.60
2018-12-17T15:49:26.122Z,4.60
2018-12-17T15:51:54.422Z,4.60
2018-12-17T15:54:22.897Z,4.70
2018-12-17T15:56:51.208Z,4.70
2018-12-17T15:59:19.985Z,4.70
2018-12-17T16:01:50.185Z,4.70
2018-12-17T16:04:18.984Z,4.70
2018-12-17T16:06:47.328Z,4.80
2018-12-17T16:09:16.064Z,4.80
2018-12-17T16:11:44.374Z,4.70
2018-12-17T16:14:14.045Z,4.80
2018-12-17T16:16:42.322Z,4.70
2018-12-17T16:19:10.810Z,4.70
2018-12-17T16:24:07.157Z,4.70
2018-12-17T16:26:35.449Z,4.70
2018-12-17T16:29:03.809Z,4.70
2018-12-17T16:31:32.235Z,4.70
2018-12-17T16:34:00.794Z,4.80
2018-12-17T16:36:29.153Z,4.70
2018-12-17T16:38:57.448Z,4.70
2018-12-17T16:41:25.934Z,4.70
2018-12-17T16:43:54.301Z,4.70
2018-12-17T16:46:22.893Z,4.70
2018-12-17T16:48:51.212Z,4.70
2018-12-17T16:51:19.473Z,4.70
2018-12-17T16:53:48.011Z,4.70
2018-12-17T16:56:16.284Z,4.70
2018-12-17T16:58:44.861Z,4.70
2018-12-17T17:01:14.254Z,4.70
2018-12-17T17:03:42.781Z,4.70
2018-12-17T17:06:11.090Z,4.70
2018-12-17T17:08:39.398Z,4.70
2018-12-17T17:11:09.533Z,4.80
2018-12-17T17:13:37.893Z,4.80
2018-12-17T17:16:06.166Z,4.80
2018-12-17T17:18:34.456Z,4.80
2018-12-17T17:21:02.878Z,4.80
2018-12-17T17:23:31.185Z,4.70
2018-12-17T17:25:59.455Z,4.80
2018-12-17T17:28:28.054Z,4.80
2018-12-17T17:30:56.354Z,4.80
2018-12-17T17:33:25.000Z,4.70
2018-12-17T17:35:53.513Z,4.80
2018-12-17T17:38:22.073Z,4.80
2018-12-17T17:40:50.348Z,4.70
2018-12-17T17:43:18.912Z,4.80
2018-12-17T17:45:47.236Z,4.70
2018-12-17T17:48:15.551Z,4.80
2018-12-17T17:50:43.964Z,4.70
2018-12-17T17:53:12.279Z,4.80
2018-12-17T17:55:40.545Z,4.70
2018-12-17T18:00:37.079Z,4.80
2018-12-17T18:03:05.382Z,4.80
2018-12-17T18:05:34.001Z,4.80
2018-12-17T18:08:02.296Z,4.80
2018-12-17T18:10:30.556Z,4.80
2018-12-17T18:12:58.971Z,4.80
2018-12-17T18:15:27.259Z,4.80
2018-12-17T18:17:55.562Z,4.80
2018-12-17T18:22:52.257Z,4.80
2018-12-17T18:25:20.658Z,4.80
2018-12-17T18:30:17.447Z,4.80
2018-12-17T18:32:45.979Z,4.70
2018-12-17T18:35:14.313Z,4.70
2018-12-17T18:37:42.652Z,4.70
2018-12-17T18:40:11.222Z,4.70
2018-12-17T18:42:39.512Z,4.60
2018-12-17T18:45:09.226Z,4.60
2018-12-17T18:47:37.532Z,4.60
2018-12-17T18:50:06.198Z,4.60
2018-12-17T18:52:34.464Z,4.60
2018-12-17T18:55:03.059Z,4.50
2018-12-17T18:57:31.369Z,4.50
2018-12-17T18:59:59.741Z,4.50
2018-12-17T19:02:33.032Z,4.50
2018-12-17T19:04:58.623Z,4.40
2018-12-17T19:07:27.308Z,4.40
2018-12-17T19:09:55.766Z,4.40
2018-12-17T19:12:24.233Z,4.40
2018-12-17T19:14:52.574Z,4.40
2018-12-17T19:17:21.432Z,4.40
2018-12-17T19:19:49.728Z,4.40
2018-12-17T19:22:18.356Z,4.40
2018-12-17T19:24:46.716Z,4.40
2018-12-17T19:27:15.306Z,4.40
2018-12-17T19:29:43.638Z,4.40
2018-12-17T19:32:12.185Z,4.40
2018-12-17T19:34:40.685Z,4.40
2018-12-17T19:37:09.249Z,4.50
2018-12-17T19:39:37.719Z,4.60
2018-12-17T19:42:06.197Z,4.60
2018-12-17T19:44:34.510Z,4.60
2018-12-17T19:47:03.053Z,4.60
2018-12-17T19:49:31.400Z,4.60
2018-12-17T19:51:59.786Z,4.60
2018-12-17T19:54:28.400Z,1.90
2018-12-17T19:56:56.724Z,4.50
2018-12-17T19:59:25.730Z,4.50
2018-12-17T20:01:54.392Z,4.60
2018-12-17T20:04:22.811Z,4.50
2018-12-17T20:06:51.259Z,4.50
2018-12-17T20:09:19.611Z,4.40
2018-12-17T20:11:48.248Z,4.40
2018-12-17T20:14:16.581Z,4.40
2018-12-17T20:16:45.189Z,4.40
2018-12-17T20:19:14.963Z,4.30
2018-12-17T20:21:43.257Z,4.30
2018-12-17T20:24:11.791Z,4.30
2018-12-17T20:26:40.246Z,4.30
2018-12-17T20:29:08.524Z,4.20
2018-12-17T20:31:36.830Z,4.20
2018-12-17T20:34:05.292Z,4.20
2018-12-17T20:36:33.948Z,4.20
2018-12-17T20:39:02.459Z,4.10
2018-12-17T20:41:30.786Z,4.10
2018-12-17T20:43:59.424Z,4.10
2018-12-17T20:46:27.893Z,4.10
2018-12-17T20:48:56.259Z,4.10
2018-12-17T20:51:24.661Z,4.10
2018-12-17T20:53:53.247Z,4.10
2018-12-17T20:56:21.577Z,4.10
2018-12-17T20:58:50.221Z,4.00
2018-12-17T21:01:18.617Z,4.10
2018-12-17T21:03:47.152Z,4.10
2018-12-17T21:06:15.703Z,4.10
2018-12-17T21:08:44.275Z,4.10
2018-12-17T21:11:12.659Z,4.10
2018-12-17T21:13:41.292Z,4.10
2018-12-17T21:16:09.709Z,4.20
2018-12-17T21:18:38.313Z,4.20
2018-12-17T21:21:06.651Z,4.20
2018-12-17T21:23:35.353Z,2.90
2018-12-17T21:26:03.701Z,4.20
2018-12-17T21:28:32.371Z,4.20
2018-12-17T21:31:00.734Z,4.20
2018-12-17T21:33:29.358Z,4.20
2018-12-17T21:35:57.752Z,4.20
2018-12-17T21:38:26.309Z,4.20
2018-12-17T21:40:54.606Z,4.20
2018-12-17T21:43:22.901Z,4.20
2018-12-17T21:45:51.462Z,4.20
2018-12-17T21:48:19.845Z,4.20
2018-12-17T21:50:48.601Z,4.20
2018-12-17T21:53:17.533Z,4.20
2018-12-17T21:55:45.997Z,4.10
2018-12-17T21:58:14.763Z,4.10
2018-12-17T22:00:43.300Z,4.10
2018-12-17T22:03:13.377Z,4.10
2018-12-17T22:05:42.327Z,4.10
2018-12-17T22:08:10.616Z,4.00
2018-12-17T22:10:39.874Z,4.10
2018-12-17T22:13:08.288Z,4.10
2018-12-17T22:15:36.576Z,4.10
2018-12-17T22:18:04.906Z,4.00
2018-12-17T22:20:33.477Z,4.00
2018-12-17T22:23:01.765Z,4.00
2018-12-17T22:25:30.322Z,4.00
2018-12-17T22:27:58.627Z,4.00
2018-12-17T22:30:26.974Z,3.90
2018-12-17T22:32:55.542Z,3.90
2018-12-17T22:35:23.816Z,3.90
2018-12-17T22:37:52.322Z,5.90
2018-12-17T22:40:21.585Z,3.90
2018-12-17T22:42:49.961Z,3.90
2018-12-17T22:45:18.521Z,3.90
2018-12-17T22:47:46.833Z,3.90
2018-12-17T22:50:15.396Z,3.90
2018-12-17T22:55:11.728Z,3.90
2018-12-17T22:57:40.044Z,3.90
2018-12-17T23:02:36.977Z,4.00
2018-12-17T23:05:05.433Z,5.70
2018-12-17T23:07:33.721Z,4.10
2018-12-17T23:10:13.684Z,4.10
2018-12-17T23:12:53.243Z,4.20
2018-12-17T23:15:32.767Z,4.20
2018-12-17T23:18:00.162Z,4.20
2018-12-17T23:22:56.674Z,4.20
2018-12-17T23:25:24.938Z,4.20
2018-12-17T23:27:53.504Z,4.30
2018-12-17T23:30:22.208Z,4.20
2018-12-17T23:32:50.501Z,4.30
2018-12-17T23:35:18.761Z,4.20
2018-12-17T23:37:47.057Z,4.20
2018-12-17T23:40:15.609Z,4.20
2018-12-17T23:42:43.985Z,4.20
2018-12-17T23:45:12.572Z,4.20
2018-12-17T23:47:40.871Z,4.10
2018-12-17T23:50:09.144Z,4.10
2018-12-17T23:52:37.577Z,4.10
2018-12-17T23:55:06.056Z,4.10
2018-12-17T23:57:34.697Z,4.10
